sensor_id;sensor_type;location;lat;lon;timestamp;temperature;humidity
262;DHT22;114;48.260;10.988;2023-02-15T00:01:35;-1.30;99.90
262;DHT22;114;48.260;10.988;2023-02-15T00:04:02;-1.40;99.90
262;DHT22;114;48.260;10.988;2023-02-15T00:06:28;-1.40;99.90
262;DHT22;114;48.260;10.988;2023-02-15T00:08:55;-1.40;99.90
262;DHT22;114;48.260;10.988;2023-02-15T00:11:21;-1.50;99.90
262;DHT22;114;48.260;10.988;2023-02-15T00:14:10;-1.50;99.90
262;DHT22;114;48.260;10.988;2023-02-15T00:16:36;-1.30;99.90
262;DHT22;114;48.260;10.988;2023-02-15T00:19:03;-1.20;99.90
262;DHT22;114;48.260;10.988;2023-02-15T00:21:30;-1.40;99.90
262;DHT22;114;48.260;10.988;2023-02-15T00:23:57;-1.40;99.90
262;DHT22;114;48.260;10.988;2023-02-15T00:26:23;-1.40;99.90
262;DHT22;114;48.260;10.988;2023-02-15T00:28:49;-1.30;99.90
262;DHT22;114;48.260;10.988;2023-02-15T00:31:15;-1.30;99.90
262;DHT22;114;48.260;10.988;2023-02-15T00:33:40;-1.30;99.90
262;DHT22;114;48.260;10.988;2023-02-15T00:36:08;-1.40;99.90
262;DHT22;114;48.260;10.988;2023-02-15T00:38:34;-1.30;99.90
262;DHT22;114;48.260;10.988;2023-02-15T00:41:02;-1.30;99.90
262;DHT22;114;48.260;10.988;2023-02-15T00:43:30;-1.30;99.90
262;DHT22;114;48.260;10.988;2023-02-15T00:45:56;-1.30;99.90
262;DHT22;114;48.260;10.988;2023-02-15T00:48:22;-1.30;99.90
262;DHT22;114;48.260;10.988;2023-02-15T00:50:53;-1.30;99.90
262;DHT22;114;48.260;10.988;2023-02-15T00:53:20;-1.30;99.90
262;DHT22;114;48.260;10.988;2023-02-15T00:55:46;-1.30;99.90
262;DHT22;114;48.260;10.988;2023-02-15T00:58:13;-1.40;99.90
262;DHT22;114;48.260;10.988;2023-02-15T01:00:40;-1.30;99.90
262;DHT22;114;48.260;10.988;2023-02-15T01:03:06;-1.40;99.90
262;DHT22;114;48.260;10.988;2023-02-15T01:05:32;-1.40;99.90
262;DHT22;114;48.260;10.988;2023-02-15T01:07:59;-1.50;99.90
262;DHT22;114;48.260;10.988;2023-02-15T01:10:25;-1.50;99.90
262;DHT22;114;48.260;10.988;2023-02-15T01:12:52;-1.60;99.90
262;DHT22;114;48.260;10.988;2023-02-15T01:15:18;-1.60;99.90
262;DHT22;114;48.260;10.988;2023-02-15T01:17:43;-1.50;99.90
262;DHT22;114;48.260;10.988;2023-02-15T01:20:15;-1.30;99.90
262;DHT22;114;48.260;10.988;2023-02-15T01:22:41;-1.50;99.90
262;DHT22;114;48.260;10.988;2023-02-15T01:25:07;-1.50;99.90
262;DHT22;114;48.260;10.988;2023-02-15T01:27:32;-1.50;99.90
262;DHT22;114;48.260;10.988;2023-02-15T01:29:58;-1.50;99.90
262;DHT22;114;48.260;10.988;2023-02-15T01:32:24;-1.60;99.90
262;DHT22;114;48.260;10.988;2023-02-15T01:34:49;-1.60;99.90
262;DHT22;114;48.260;10.988;2023-02-15T01:37:15;-1.60;99.90
262;DHT22;114;48.260;10.988;2023-02-15T01:39:41;-1.60;99.90
262;DHT22;114;48.260;10.988;2023-02-15T01:42:10;-1.70;99.90
262;DHT22;114;48.260;10.988;2023-02-15T01:45:00;-1.50;99.90
262;DHT22;114;48.260;10.988;2023-02-15T01:47:34;-1.70;99.90
262;DHT22;114;48.260;10.988;2023-02-15T01:56:08;-1.30;99.90
262;DHT22;114;48.260;10.988;2023-02-15T01:58:32;-1.60;99.90
262;DHT22;114;48.260;10.988;2023-02-15T02:01:00;-1.70;99.90
262;DHT22;114;48.260;10.988;2023-02-15T02:06:17;-1.60;99.90
262;DHT22;114;48.260;10.988;2023-02-15T02:08:43;-1.60;99.90
262;DHT22;114;48.260;10.988;2023-02-15T02:11:11;-1.70;99.90
262;DHT22;114;48.260;10.988;2023-02-15T02:13:38;-1.70;99.90
262;DHT22;114;48.260;10.988;2023-02-15T02:16:12;-1.70;99.90
262;DHT22;114;48.260;10.988;2023-02-15T02:19:42;-1.70;99.90
262;DHT22;114;48.260;10.988;2023-02-15T02:43:15;-1.60;99.90
262;DHT22;114;48.260;10.988;2023-02-15T02:46:05;-1.60;99.90
262;DHT22;114;48.260;10.988;2023-02-15T02:48:33;-1.60;99.90
262;DHT22;114;48.260;10.988;2023-02-15T02:50:59;-1.70;99.90
262;DHT22;114;48.260;10.988;2023-02-15T02:53:26;-1.60;99.90
262;DHT22;114;48.260;10.988;2023-02-15T02:55:58;-1.60;99.90
262;DHT22;114;48.260;10.988;2023-02-15T02:58:45;-1.60;99.90
262;DHT22;114;48.260;10.988;2023-02-15T03:01:24;-1.60;99.90
262;DHT22;114;48.260;10.988;2023-02-15T03:03:54;-1.60;99.90
262;DHT22;114;48.260;10.988;2023-02-15T03:06:43;-1.60;99.90
262;DHT22;114;48.260;10.988;2023-02-15T03:09:12;-1.40;99.90
262;DHT22;114;48.260;10.988;2023-02-15T03:11:44;-1.60;99.90
262;DHT22;114;48.260;10.988;2023-02-15T03:14:10;-1.60;99.90
262;DHT22;114;48.260;10.988;2023-02-15T03:16:39;-1.60;99.90
262;DHT22;114;48.260;10.988;2023-02-15T03:19:10;-1.60;99.90
262;DHT22;114;48.260;10.988;2023-02-15T03:21:44;-1.50;99.90
262;DHT22;114;48.260;10.988;2023-02-15T03:24:47;-1.50;99.90
262;DHT22;114;48.260;10.988;2023-02-15T03:27:19;-1.60;99.90
262;DHT22;114;48.260;10.988;2023-02-15T03:29:56;-1.50;99.90
262;DHT22;114;48.260;10.988;2023-02-15T03:32:24;-1.50;99.90
262;DHT22;114;48.260;10.988;2023-02-15T03:34:51;-1.50;99.90
262;DHT22;114;48.260;10.988;2023-02-15T03:43:23;-1.40;99.90
262;DHT22;114;48.260;10.988;2023-02-15T03:45:50;-1.30;99.90
262;DHT22;114;48.260;10.988;2023-02-15T03:48:39;-1.50;99.90
262;DHT22;114;48.260;10.988;2023-02-15T03:51:14;-1.60;99.90
262;DHT22;114;48.260;10.988;2023-02-15T03:54:12;-1.60;99.90
262;DHT22;114;48.260;10.988;2023-02-15T03:56:41;-1.70;99.90
262;DHT22;114;48.260;10.988;2023-02-15T03:59:07;-1.70;99.90
262;DHT22;114;48.260;10.988;2023-02-15T04:02:12;-1.70;99.90
262;DHT22;114;48.260;10.988;2023-02-15T04:04:46;-1.80;99.90
262;DHT22;114;48.260;10.988;2023-02-15T04:07:12;-1.80;99.90
262;DHT22;114;48.260;10.988;2023-02-15T04:09:38;-1.80;99.90
262;DHT22;114;48.260;10.988;2023-02-15T04:12:22;-1.70;99.90
262;DHT22;114;48.260;10.988;2023-02-15T04:14:48;-1.70;99.90
262;DHT22;114;48.260;10.988;2023-02-15T04:17:33;-1.50;99.90
262;DHT22;114;48.260;10.988;2023-02-15T04:19:58;-1.70;99.90
262;DHT22;114;48.260;10.988;2023-02-15T04:22:43;-1.50;99.90
262;DHT22;114;48.260;10.988;2023-02-15T04:25:28;-1.70;99.90
262;DHT22;114;48.260;10.988;2023-02-15T04:27:54;-1.60;99.90
262;DHT22;114;48.260;10.988;2023-02-15T04:30:23;-1.60;99.90
262;DHT22;114;48.260;10.988;2023-02-15T04:32:50;-1.70;99.90
262;DHT22;114;48.260;10.988;2023-02-15T04:35:16;-1.60;99.90
262;DHT22;114;48.260;10.988;2023-02-15T04:37:43;-1.70;99.90
262;DHT22;114;48.260;10.988;2023-02-15T04:40:11;-1.70;99.90
262;DHT22;114;48.260;10.988;2023-02-15T04:42:37;-1.70;99.90
262;DHT22;114;48.260;10.988;2023-02-15T04:45:03;-1.70;99.90
262;DHT22;114;48.260;10.988;2023-02-15T04:47:29;-1.70;99.90
262;DHT22;114;48.260;10.988;2023-02-15T04:49:54;-1.50;99.90
262;DHT22;114;48.260;10.988;2023-02-15T04:52:20;-1.70;99.90
262;DHT22;114;48.260;10.988;2023-02-15T04:54:46;-1.70;99.90
262;DHT22;114;48.260;10.988;2023-02-15T04:57:12;-1.70;99.90
262;DHT22;114;48.260;10.988;2023-02-15T04:59:38;-1.70;99.90
262;DHT22;114;48.260;10.988;2023-02-15T05:02:04;-1.70;99.90
262;DHT22;114;48.260;10.988;2023-02-15T05:04:30;-1.40;99.90
262;DHT22;114;48.260;10.988;2023-02-15T05:06:55;-1.50;99.90
262;DHT22;114;48.260;10.988;2023-02-15T05:09:21;-1.60;99.90
262;DHT22;114;48.260;10.988;2023-02-15T05:11:47;-1.70;99.90
262;DHT22;114;48.260;10.988;2023-02-15T05:14:13;-1.70;99.90
262;DHT22;114;48.260;10.988;2023-02-15T05:16:39;-1.70;99.90
262;DHT22;114;48.260;10.988;2023-02-15T05:19:04;-1.80;99.90
262;DHT22;114;48.260;10.988;2023-02-15T05:21:31;-1.80;99.90
262;DHT22;114;48.260;10.988;2023-02-15T05:23:57;-1.70;99.90
262;DHT22;114;48.260;10.988;2023-02-15T05:26:24;-1.90;99.90
262;DHT22;114;48.260;10.988;2023-02-15T05:29:09;-1.80;99.90
262;DHT22;114;48.260;10.988;2023-02-15T05:31:35;-1.60;99.90
262;DHT22;114;48.260;10.988;2023-02-15T05:34:01;-1.30;99.90
262;DHT22;114;48.260;10.988;2023-02-15T05:36:27;-1.70;99.90
262;DHT22;114;48.260;10.988;2023-02-15T05:38:54;-1.80;99.90
262;DHT22;114;48.260;10.988;2023-02-15T05:41:20;-1.80;99.90
262;DHT22;114;48.260;10.988;2023-02-15T05:43:46;-1.80;99.90
262;DHT22;114;48.260;10.988;2023-02-15T05:46:12;-2.00;99.90
262;DHT22;114;48.260;10.988;2023-02-15T05:48:38;-1.70;99.90
262;DHT22;114;48.260;10.988;2023-02-15T05:51:05;-2.00;99.90
262;DHT22;114;48.260;10.988;2023-02-15T05:53:33;-2.00;99.90
262;DHT22;114;48.260;10.988;2023-02-15T05:56:00;-2.00;99.90
262;DHT22;114;48.260;10.988;2023-02-15T05:58:26;-1.80;99.90
262;DHT22;114;48.260;10.988;2023-02-15T06:00:53;-1.90;99.90
262;DHT22;114;48.260;10.988;2023-02-15T06:03:18;-2.10;99.90
262;DHT22;114;48.260;10.988;2023-02-15T06:05:44;-2.10;99.90
262;DHT22;114;48.260;10.988;2023-02-15T06:08:10;-2.20;99.90
262;DHT22;114;48.260;10.988;2023-02-15T06:10:36;-2.10;99.90
262;DHT22;114;48.260;10.988;2023-02-15T06:13:01;-1.90;99.90
262;DHT22;114;48.260;10.988;2023-02-15T06:15:27;-2.10;99.90
262;DHT22;114;48.260;10.988;2023-02-15T06:17:53;-1.60;99.90
262;DHT22;114;48.260;10.988;2023-02-15T06:20:19;-1.60;99.90
262;DHT22;114;48.260;10.988;2023-02-15T06:22:44;-1.60;99.90
262;DHT22;114;48.260;10.988;2023-02-15T06:25:10;-1.80;99.90
262;DHT22;114;48.260;10.988;2023-02-15T06:27:37;-1.80;99.90
262;DHT22;114;48.260;10.988;2023-02-15T06:30:08;-2.00;99.90
262;DHT22;114;48.260;10.988;2023-02-15T06:32:35;-2.00;99.90
262;DHT22;114;48.260;10.988;2023-02-15T06:35:02;-1.90;99.90
262;DHT22;114;48.260;10.988;2023-02-15T06:37:28;-2.10;99.90
262;DHT22;114;48.260;10.988;2023-02-15T06:39:53;-2.10;99.90
262;DHT22;114;48.260;10.988;2023-02-15T06:42:19;-2.20;99.90
262;DHT22;114;48.260;10.988;2023-02-15T06:44:45;-2.20;99.90
262;DHT22;114;48.260;10.988;2023-02-15T06:47:11;-1.90;99.90
262;DHT22;114;48.260;10.988;2023-02-15T06:49:38;-2.10;99.90
262;DHT22;114;48.260;10.988;2023-02-15T06:52:04;-2.00;99.90
262;DHT22;114;48.260;10.988;2023-02-15T06:54:30;-1.80;99.90
262;DHT22;114;48.260;10.988;2023-02-15T06:56:56;-1.90;99.90
262;DHT22;114;48.260;10.988;2023-02-15T06:59:22;-2.10;99.90
262;DHT22;114;48.260;10.988;2023-02-15T07:01:48;-2.10;99.90
262;DHT22;114;48.260;10.988;2023-02-15T07:04:14;-2.10;99.90
262;DHT22;114;48.260;10.988;2023-02-15T07:06:40;-2.10;99.90
262;DHT22;114;48.260;10.988;2023-02-15T07:09:06;-2.00;99.90
262;DHT22;114;48.260;10.988;2023-02-15T07:11:32;-1.80;99.90
262;DHT22;114;48.260;10.988;2023-02-15T07:14:16;-2.00;99.90
262;DHT22;114;48.260;10.988;2023-02-15T07:16:45;-2.00;99.90
262;DHT22;114;48.260;10.988;2023-02-15T07:19:11;-1.90;99.90
262;DHT22;114;48.260;10.988;2023-02-15T07:21:36;-1.80;99.90
262;DHT22;114;48.260;10.988;2023-02-15T07:24:03;-1.90;99.90
262;DHT22;114;48.260;10.988;2023-02-15T07:26:31;-1.90;99.90
262;DHT22;114;48.260;10.988;2023-02-15T07:28:57;-2.00;99.90
262;DHT22;114;48.260;10.988;2023-02-15T07:31:23;-2.00;99.90
262;DHT22;114;48.260;10.988;2023-02-15T07:33:49;-1.90;99.90
262;DHT22;114;48.260;10.988;2023-02-15T07:36:14;-2.00;99.90
262;DHT22;114;48.260;10.988;2023-02-15T07:38:41;-2.10;99.90
262;DHT22;114;48.260;10.988;2023-02-15T07:41:12;-2.10;98.90
262;DHT22;114;48.260;10.988;2023-02-15T07:43:41;-1.90;99.20
262;DHT22;114;48.260;10.988;2023-02-15T07:46:10;-2.10;98.20
262;DHT22;114;48.260;10.988;2023-02-15T07:48:37;-2.10;98.10
262;DHT22;114;48.260;10.988;2023-02-15T07:51:05;-2.10;97.10
262;DHT22;114;48.260;10.988;2023-02-15T07:53:31;-2.10;96.10
262;DHT22;114;48.260;10.988;2023-02-15T07:56:01;-2.10;95.80
262;DHT22;114;48.260;10.988;2023-02-15T07:58:28;-1.70;96.10
262;DHT22;114;48.260;10.988;2023-02-15T08:01:13;-1.60;96.40
262;DHT22;114;48.260;10.988;2023-02-15T08:03:39;-1.60;96.40
262;DHT22;114;48.260;10.988;2023-02-15T08:06:05;-1.40;94.70
262;DHT22;114;48.260;10.988;2023-02-15T08:08:31;-1.50;92.60
262;DHT22;114;48.260;10.988;2023-02-15T08:13:45;-1.50;92.90
262;DHT22;114;48.260;10.988;2023-02-15T08:19:04;-1.20;91.60
262;DHT22;114;48.260;10.988;2023-02-15T08:21:31;-1.20;92.90
262;DHT22;114;48.260;10.988;2023-02-15T08:23:58;-1.10;92.30
262;DHT22;114;48.260;10.988;2023-02-15T08:26:25;-0.90;92.00
262;DHT22;114;48.260;10.988;2023-02-15T08:28:52;-1.00;91.60
262;DHT22;114;48.260;10.988;2023-02-15T08:31:18;-1.00;90.70
262;DHT22;114;48.260;10.988;2023-02-15T08:33:45;-0.90;90.10
262;DHT22;114;48.260;10.988;2023-02-15T08:36:14;-0.70;90.80
262;DHT22;114;48.260;10.988;2023-02-15T08:38:41;-0.60;90.20
262;DHT22;114;48.260;10.988;2023-02-15T08:41:25;-0.60;85.80
262;DHT22;114;48.260;10.988;2023-02-15T08:43:55;-0.60;84.40
262;DHT22;114;48.260;10.988;2023-02-15T08:46:24;-0.60;82.30
262;DHT22;114;48.260;10.988;2023-02-15T08:48:49;-0.70;81.10
262;DHT22;114;48.260;10.988;2023-02-15T08:51:18;-0.60;81.30
262;DHT22;114;48.260;10.988;2023-02-15T08:53:47;-0.50;83.10
262;DHT22;114;48.260;10.988;2023-02-15T08:56:18;-0.40;83.50
262;DHT22;114;48.260;10.988;2023-02-15T08:58:43;-0.30;82.00
262;DHT22;114;48.260;10.988;2023-02-15T09:01:15;-0.10;78.30
262;DHT22;114;48.260;10.988;2023-02-15T09:03:47;0.30;75.90
262;DHT22;114;48.260;10.988;2023-02-15T09:06:14;0.10;69.70
262;DHT22;114;48.260;10.988;2023-02-15T09:08:40;0.10;67.20
262;DHT22;114;48.260;10.988;2023-02-15T09:11:11;0.00;67.30
262;DHT22;114;48.260;10.988;2023-02-15T09:13:38;0.20;66.10
262;DHT22;114;48.260;10.988;2023-02-15T09:16:08;0.40;68.10
262;DHT22;114;48.260;10.988;2023-02-15T09:18:38;0.50;63.90
262;DHT22;114;48.260;10.988;2023-02-15T09:21:18;0.60;62.80
262;DHT22;114;48.260;10.988;2023-02-15T09:23:46;0.70;62.90
262;DHT22;114;48.260;10.988;2023-02-15T09:26:16;0.80;60.10
262;DHT22;114;48.260;10.988;2023-02-15T09:28:42;0.80;58.70
262;DHT22;114;48.260;10.988;2023-02-15T09:31:13;0.70;57.40
262;DHT22;114;48.260;10.988;2023-02-15T09:33:41;0.70;58.90
262;DHT22;114;48.260;10.988;2023-02-15T09:36:20;0.90;57.30
262;DHT22;114;48.260;10.988;2023-02-15T09:38:58;1.10;56.50
262;DHT22;114;48.260;10.988;2023-02-15T10:01:26;2.20;30.00
262;DHT22;114;48.260;10.988;2023-02-15T10:07:39;2.80;25.40
262;DHT22;114;48.260;10.988;2023-02-15T10:16:19;2.90;21.30
262;DHT22;114;48.260;10.988;2023-02-15T10:19:14;3.30;22.70
262;DHT22;114;48.260;10.988;2023-02-15T10:27:20;3.00;22.10
262;DHT22;114;48.260;10.988;2023-02-15T10:30:12;3.00;24.30
262;DHT22;114;48.260;10.988;2023-02-15T10:33:03;2.90;23.20
262;DHT22;114;48.260;10.988;2023-02-15T10:35:54;2.90;21.30
262;DHT22;114;48.260;10.988;2023-02-15T10:44:10;3.50;22.00
262;DHT22;114;48.260;10.988;2023-02-15T10:55:20;4.30;16.60
262;DHT22;114;48.260;10.988;2023-02-15T11:01:05;7.50;1.50
262;DHT22;114;48.260;10.988;2023-02-15T11:06:09;10.20;1.00
262;DHT22;114;48.260;10.988;2023-02-15T11:08:42;10.90;1.00
262;DHT22;114;48.260;10.988;2023-02-15T11:11:15;11.50;1.00
262;DHT22;114;48.260;10.988;2023-02-15T11:13:48;12.00;1.00
262;DHT22;114;48.260;10.988;2023-02-15T11:16:16;12.60;1.00
262;DHT22;114;48.260;10.988;2023-02-15T11:18:51;13.30;1.00
262;DHT22;114;48.260;10.988;2023-02-15T11:21:33;13.60;1.00
262;DHT22;114;48.260;10.988;2023-02-15T11:24:12;13.20;1.00
262;DHT22;114;48.260;10.988;2023-02-15T11:32:27;14.20;1.00
262;DHT22;114;48.260;10.988;2023-02-15T11:37:40;14.60;1.00
262;DHT22;114;48.260;10.988;2023-02-15T11:41:06;15.10;1.00
262;DHT22;114;48.260;10.988;2023-02-15T11:43:23;15.40;1.00
262;DHT22;114;48.260;10.988;2023-02-15T11:45:53;15.20;1.00
262;DHT22;114;48.260;10.988;2023-02-15T11:48:20;15.80;1.00
262;DHT22;114;48.260;10.988;2023-02-15T11:50:46;16.30;1.00
262;DHT22;114;48.260;10.988;2023-02-15T11:53:17;16.90;1.00
262;DHT22;114;48.260;10.988;2023-02-15T11:55:45;17.00;1.00
262;DHT22;114;48.260;10.988;2023-02-15T11:58:35;17.20;1.00
262;DHT22;114;48.260;10.988;2023-02-15T12:03:53;17.50;1.00
262;DHT22;114;48.260;10.988;2023-02-15T12:06:28;17.60;1.00
262;DHT22;114;48.260;10.988;2023-02-15T12:09:02;18.10;1.00
262;DHT22;114;48.260;10.988;2023-02-15T12:11:46;19.10;1.00
262;DHT22;114;48.260;10.988;2023-02-15T12:14:13;18.80;1.00
262;DHT22;114;48.260;10.988;2023-02-15T12:16:54;19.00;1.00
262;DHT22;114;48.260;10.988;2023-02-15T12:19:39;19.30;1.00
262;DHT22;114;48.260;10.988;2023-02-15T12:22:20;19.30;1.00
262;DHT22;114;48.260;10.988;2023-02-15T12:24:56;18.20;1.00
262;DHT22;114;48.260;10.988;2023-02-15T12:27:27;19.30;1.00
262;DHT22;114;48.260;10.988;2023-02-15T12:30:00;19.10;1.00
262;DHT22;114;48.260;10.988;2023-02-15T12:32:35;19.40;1.00
262;DHT22;114;48.260;10.988;2023-02-15T12:35:16;20.00;1.00
262;DHT22;114;48.260;10.988;2023-02-15T12:38:01;20.20;1.00
262;DHT22;114;48.260;10.988;2023-02-15T12:40:29;20.20;1.00
262;DHT22;114;48.260;10.988;2023-02-15T12:42:55;20.50;1.00
262;DHT22;114;48.260;10.988;2023-02-15T12:45:28;20.60;1.00
262;DHT22;114;48.260;10.988;2023-02-15T12:48:18;20.40;1.00
262;DHT22;114;48.260;10.988;2023-02-15T12:50:47;20.50;1.00
262;DHT22;114;48.260;10.988;2023-02-15T12:55:55;21.00;1.00
262;DHT22;114;48.260;10.988;2023-02-15T12:58:23;20.70;1.00
262;DHT22;114;48.260;10.988;2023-02-15T13:04:01;20.20;1.00
262;DHT22;114;48.260;10.988;2023-02-15T13:06:31;19.60;1.00
262;DHT22;114;48.260;10.988;2023-02-15T13:09:06;20.00;1.00
262;DHT22;114;48.260;10.988;2023-02-15T13:11:37;20.10;1.00
262;DHT22;114;48.260;10.988;2023-02-15T13:14:18;20.00;1.00
262;DHT22;114;48.260;10.988;2023-02-15T13:16:47;20.30;1.00
262;DHT22;114;48.260;10.988;2023-02-15T13:19:19;20.30;1.00
262;DHT22;114;48.260;10.988;2023-02-15T13:21:50;20.10;1.00
262;DHT22;114;48.260;10.988;2023-02-15T13:24:23;20.10;1.00
262;DHT22;114;48.260;10.988;2023-02-15T13:26:50;20.80;1.00
262;DHT22;114;48.260;10.988;2023-02-15T13:29:28;20.70;1.00
262;DHT22;114;48.260;10.988;2023-02-15T13:31:56;21.10;1.00
262;DHT22;114;48.260;10.988;2023-02-15T13:34:28;21.10;1.00
262;DHT22;114;48.260;10.988;2023-02-15T13:48:41;20.20;1.00
262;DHT22;114;48.260;10.988;2023-02-15T13:54:01;19.10;1.00
262;DHT22;114;48.260;10.988;2023-02-15T14:09:03;16.50;1.00
262;DHT22;114;48.260;10.988;2023-02-15T14:15:13;12.20;1.00
262;DHT22;114;48.260;10.988;2023-02-15T14:23:56;9.70;1.00
262;DHT22;114;48.260;10.988;2023-02-15T14:29:59;8.70;1.00
262;DHT22;114;48.260;10.988;2023-02-15T14:32:45;8.40;1.00
262;DHT22;114;48.260;10.988;2023-02-15T14:35:23;8.30;2.50
262;DHT22;114;48.260;10.988;2023-02-15T14:38:15;8.10;3.90
262;DHT22;114;48.260;10.988;2023-02-15T14:41:04;7.90;6.50
262;DHT22;114;48.260;10.988;2023-02-15T14:49:09;7.60;11.70
262;DHT22;114;48.260;10.988;2023-02-15T14:54:09;7.30;15.00
262;DHT22;114;48.260;10.988;2023-02-15T14:56:35;7.20;17.40
262;DHT22;114;48.260;10.988;2023-02-15T14:59:14;7.20;19.00
262;DHT22;114;48.260;10.988;2023-02-15T15:01:41;7.20;20.50
262;DHT22;114;48.260;10.988;2023-02-15T15:04:12;7.20;20.80
262;DHT22;114;48.260;10.988;2023-02-15T15:06:41;7.20;20.70
262;DHT22;114;48.260;10.988;2023-02-15T15:09:28;7.20;21.30
262;DHT22;114;48.260;10.988;2023-02-15T15:14:40;7.10;21.30
262;DHT22;114;48.260;10.988;2023-02-15T15:17:08;7.10;22.30
262;DHT22;114;48.260;10.988;2023-02-15T15:19:56;6.90;22.50
262;DHT22;114;48.260;10.988;2023-02-15T15:22:29;7.00;23.40
262;DHT22;114;48.260;10.988;2023-02-15T15:44:54;6.60;28.50
262;DHT22;114;48.260;10.988;2023-02-15T15:50:14;6.40;31.00
262;DHT22;114;48.260;10.988;2023-02-15T15:52:47;6.40;31.70
262;DHT22;114;48.260;10.988;2023-02-15T15:55:22;6.40;31.60
262;DHT22;114;48.260;10.988;2023-02-15T15:57:51;6.30;31.90
262;DHT22;114;48.260;10.988;2023-02-15T16:00:33;6.30;32.30
262;DHT22;114;48.260;10.988;2023-02-15T16:02:59;6.20;33.40
262;DHT22;114;48.260;10.988;2023-02-15T16:05:25;6.10;34.90
262;DHT22;114;48.260;10.988;2023-02-15T16:07:51;6.00;39.00
262;DHT22;114;48.260;10.988;2023-02-15T16:10:26;5.90;39.40
262;DHT22;114;48.260;10.988;2023-02-15T16:12:53;5.90;40.90
262;DHT22;114;48.260;10.988;2023-02-15T16:15:34;5.80;42.90
262;DHT22;114;48.260;10.988;2023-02-15T16:18:01;5.70;45.40
262;DHT22;114;48.260;10.988;2023-02-15T16:20:30;5.60;48.10
262;DHT22;114;48.260;10.988;2023-02-15T16:26:19;5.40;49.70
262;DHT22;114;48.260;10.988;2023-02-15T16:28:52;5.30;50.00
262;DHT22;114;48.260;10.988;2023-02-15T16:31:18;5.20;52.60
262;DHT22;114;48.260;10.988;2023-02-15T16:33:45;5.00;54.50
262;DHT22;114;48.260;10.988;2023-02-15T16:36:25;5.00;56.90
262;DHT22;114;48.260;10.988;2023-02-15T16:41:28;4.70;57.60
262;DHT22;114;48.260;10.988;2023-02-15T16:43:57;4.60;60.00
262;DHT22;114;48.260;10.988;2023-02-15T16:46:47;4.40;63.10
262;DHT22;114;48.260;10.988;2023-02-15T16:49:21;4.30;65.20
262;DHT22;114;48.260;10.988;2023-02-15T16:52:10;4.20;66.40
262;DHT22;114;48.260;10.988;2023-02-15T16:54:41;4.10;70.50
262;DHT22;114;48.260;10.988;2023-02-15T16:57:17;3.90;71.20
262;DHT22;114;48.260;10.988;2023-02-15T16:59:52;3.80;73.00
262;DHT22;114;48.260;10.988;2023-02-15T17:02:24;3.70;72.50
262;DHT22;114;48.260;10.988;2023-02-15T17:05:20;3.50;73.70
262;DHT22;114;48.260;10.988;2023-02-15T17:13:01;3.20;78.90
262;DHT22;114;48.260;10.988;2023-02-15T17:18:14;3.10;80.50
262;DHT22;114;48.260;10.988;2023-02-15T17:20:45;3.00;81.30
262;DHT22;114;48.260;10.988;2023-02-15T17:25:57;2.80;81.90
262;DHT22;114;48.260;10.988;2023-02-15T17:28:26;2.70;83.40
262;DHT22;114;48.260;10.988;2023-02-15T17:30:54;2.60;84.80
262;DHT22;114;48.260;10.988;2023-02-15T17:33:34;2.60;88.60
262;DHT22;114;48.260;10.988;2023-02-15T17:36:08;2.60;86.60
262;DHT22;114;48.260;10.988;2023-02-15T17:38:36;2.60;86.20
262;DHT22;114;48.260;10.988;2023-02-15T17:41:03;2.40;87.60
262;DHT22;114;48.260;10.988;2023-02-15T17:43:28;2.30;88.50
262;DHT22;114;48.260;10.988;2023-02-15T17:45:54;2.20;89.60
262;DHT22;114;48.260;10.988;2023-02-15T17:48:33;2.10;90.60
262;DHT22;114;48.260;10.988;2023-02-15T17:51:04;2.00;91.50
262;DHT22;114;48.260;10.988;2023-02-15T17:53:30;1.90;92.60
262;DHT22;114;48.260;10.988;2023-02-15T17:55:57;1.80;93.70
262;DHT22;114;48.260;10.988;2023-02-15T17:58:23;1.80;95.00
262;DHT22;114;48.260;10.988;2023-02-15T18:00:54;1.70;95.80
262;DHT22;114;48.260;10.988;2023-02-15T18:03:41;1.70;97.10
262;DHT22;114;48.260;10.988;2023-02-15T18:06:26;1.60;97.30
262;DHT22;114;48.260;10.988;2023-02-15T18:09:14;1.50;97.80
262;DHT22;114;48.260;10.988;2023-02-15T18:11:59;1.40;98.20
262;DHT22;114;48.260;10.988;2023-02-15T18:14:25;1.30;98.50
262;DHT22;114;48.260;10.988;2023-02-15T18:16:51;1.20;98.70
262;DHT22;114;48.260;10.988;2023-02-15T18:19:22;1.10;99.00
262;DHT22;114;48.260;10.988;2023-02-15T18:21:48;1.10;99.60
262;DHT22;114;48.260;10.988;2023-02-15T18:24:21;1.00;99.70
262;DHT22;114;48.260;10.988;2023-02-15T18:26:50;0.90;99.50
262;DHT22;114;48.260;10.988;2023-02-15T18:29:16;0.80;99.70
262;DHT22;114;48.260;10.988;2023-02-15T18:31:43;0.80;99.90
262;DHT22;114;48.260;10.988;2023-02-15T18:34:30;0.70;99.70
262;DHT22;114;48.260;10.988;2023-02-15T18:36:58;0.50;99.70
262;DHT22;114;48.260;10.988;2023-02-15T18:39:43;0.50;99.90
262;DHT22;114;48.260;10.988;2023-02-15T18:42:32;0.40;99.90
262;DHT22;114;48.260;10.988;2023-02-15T18:47:57;0.50;99.90
262;DHT22;114;48.260;10.988;2023-02-15T18:50:24;0.30;99.90
262;DHT22;114;48.260;10.988;2023-02-15T18:52:51;0.20;99.90
262;DHT22;114;48.260;10.988;2023-02-15T18:55:25;0.20;99.90
262;DHT22;114;48.260;10.988;2023-02-15T18:57:53;0.10;99.90
262;DHT22;114;48.260;10.988;2023-02-15T19:00:22;0.10;99.90
262;DHT22;114;48.260;10.988;2023-02-15T19:02:57;0.00;99.90
262;DHT22;114;48.260;10.988;2023-02-15T19:05:24;-0.10;99.90
262;DHT22;114;48.260;10.988;2023-02-15T19:07:54;0.20;99.90
262;DHT22;114;48.260;10.988;2023-02-15T19:10:23;-0.10;99.90
262;DHT22;114;48.260;10.988;2023-02-15T19:12:49;-0.20;99.90
262;DHT22;114;48.260;10.988;2023-02-15T19:15:17;-0.20;99.90
262;DHT22;114;48.260;10.988;2023-02-15T19:17:43;-0.30;99.90
262;DHT22;114;48.260;10.988;2023-02-15T19:20:21;-0.30;99.90
262;DHT22;114;48.260;10.988;2023-02-15T19:22:49;-0.30;99.90
262;DHT22;114;48.260;10.988;2023-02-15T19:25:24;-0.40;99.90
262;DHT22;114;48.260;10.988;2023-02-15T19:27:51;-0.30;99.90
262;DHT22;114;48.260;10.988;2023-02-15T19:30:28;-0.40;99.90
262;DHT22;114;48.260;10.988;2023-02-15T19:32:56;-0.50;99.90
262;DHT22;114;48.260;10.988;2023-02-15T19:35:28;-0.50;99.90
262;DHT22;114;48.260;10.988;2023-02-15T19:38:01;-0.50;99.90
262;DHT22;114;48.260;10.988;2023-02-15T19:40:28;-0.60;99.90
262;DHT22;114;48.260;10.988;2023-02-15T19:42:54;-0.60;99.90
262;DHT22;114;48.260;10.988;2023-02-15T19:45:24;-0.60;99.90
262;DHT22;114;48.260;10.988;2023-02-15T19:47:51;-0.50;99.90
262;DHT22;114;48.260;10.988;2023-02-15T19:50:25;-0.60;99.90
262;DHT22;114;48.260;10.988;2023-02-15T19:52:52;-0.60;99.90
262;DHT22;114;48.260;10.988;2023-02-15T19:55:32;-0.60;99.90
262;DHT22;114;48.260;10.988;2023-02-15T19:58:00;-0.70;99.90
262;DHT22;114;48.260;10.988;2023-02-15T20:00:31;-0.80;99.90
262;DHT22;114;48.260;10.988;2023-02-15T20:02:57;-0.80;99.90
262;DHT22;114;48.260;10.988;2023-02-15T20:05:27;-0.90;99.90
262;DHT22;114;48.260;10.988;2023-02-15T20:07:54;-1.00;99.90
262;DHT22;114;48.260;10.988;2023-02-15T20:10:23;-1.00;99.90
262;DHT22;114;48.260;10.988;2023-02-15T20:12:49;-1.00;99.90
262;DHT22;114;48.260;10.988;2023-02-15T20:15:24;-1.00;99.90
262;DHT22;114;48.260;10.988;2023-02-15T20:17:54;-1.10;99.90